sensor_id;sensor_type;location;lat;lon;timestamp;P1;durP1;ratioP1;P2;durP2;ratioP2
18592;SDS011;9426;54.118;17.948;2023-12-04T00:00:50;17.60;;;8.00;;
18592;SDS011;9426;54.118;17.948;2023-12-04T00:06:14;11.33;;;4.40;;
18592;SDS011;9426;54.118;17.948;2023-12-04T00:11:37;6.87;;;3.60;;
18592;SDS011;9426;54.118;17.948;2023-12-04T00:17:03;8.67;;;4.37;;
18592;SDS011;9426;54.118;17.948;2023-12-04T00:22:27;7.27;;;3.63;;
18592;SDS011;9426;54.118;17.948;2023-12-04T00:27:50;10.07;;;4.30;;
18592;SDS011;9426;54.118;17.948;2023-12-04T00:33:16;8.47;;;4.50;;
18592;SDS011;9426;54.118;17.948;2023-12-04T00:38:39;8.57;;;4.53;;
18592;SDS011;9426;54.118;17.948;2023-12-04T00:44:03;9.40;;;4.77;;
18592;SDS011;9426;54.118;17.948;2023-12-04T00:49:28;7.90;;;4.47;;
18592;SDS011;9426;54.118;17.948;2023-12-04T00:54:52;13.53;;;5.20;;
18592;SDS011;9426;54.118;17.948;2023-12-04T01:00:16;12.80;;;5.33;;
18592;SDS011;9426;54.118;17.948;2023-12-04T01:05:41;10.47;;;4.60;;
18592;SDS011;9426;54.118;17.948;2023-12-04T01:11:04;6.90;;;4.47;;
18592;SDS011;9426;54.118;17.948;2023-12-04T01:16:28;7.50;;;4.53;;
18592;SDS011;9426;54.118;17.948;2023-12-04T01:21:53;10.83;;;5.70;;
18592;SDS011;9426;54.118;17.948;2023-12-04T01:27:17;10.60;;;5.03;;
18592;SDS011;9426;54.118;17.948;2023-12-04T01:32:41;10.10;;;5.47;;
18592;SDS011;9426;54.118;17.948;2023-12-04T01:38:06;11.03;;;4.83;;
18592;SDS011;9426;54.118;17.948;2023-12-04T01:43:30;11.30;;;4.70;;
18592;SDS011;9426;54.118;17.948;2023-12-04T01:48:54;10.50;;;5.10;;
18592;SDS011;9426;54.118;17.948;2023-12-04T01:54:19;9.63;;;4.93;;
18592;SDS011;9426;54.118;17.948;2023-12-04T01:59:43;10.30;;;5.13;;
18592;SDS011;9426;54.118;17.948;2023-12-04T02:05:08;12.03;;;5.10;;
18592;SDS011;9426;54.118;17.948;2023-12-04T02:10:33;11.90;;;5.80;;
18592;SDS011;9426;54.118;17.948;2023-12-04T02:15:57;13.90;;;5.60;;
18592;SDS011;9426;54.118;17.948;2023-12-04T02:21:24;11.03;;;5.60;;
18592;SDS011;9426;54.118;17.948;2023-12-04T02:26:50;11.90;;;5.63;;
18592;SDS011;9426;54.118;17.948;2023-12-04T02:32:17;13.30;;;6.07;;
18592;SDS011;9426;54.118;17.948;2023-12-04T02:37:42;12.20;;;5.57;;
18592;SDS011;9426;54.118;17.948;2023-12-04T02:43:07;11.60;;;6.03;;
18592;SDS011;9426;54.118;17.948;2023-12-04T02:48:31;12.17;;;5.53;;
18592;SDS011;9426;54.118;17.948;2023-12-04T02:53:55;13.43;;;5.33;;
18592;SDS011;9426;54.118;17.948;2023-12-04T02:59:20;12.33;;;5.47;;
18592;SDS011;9426;54.118;17.948;2023-12-04T03:04:44;12.23;;;5.80;;
18592;SDS011;9426;54.118;17.948;2023-12-04T03:10:08;14.40;;;6.13;;
18592;SDS011;9426;54.118;17.948;2023-12-04T03:15:33;13.33;;;6.00;;
18592;SDS011;9426;54.118;17.948;2023-12-04T03:20:57;11.10;;;5.17;;
18592;SDS011;9426;54.118;17.948;2023-12-04T03:26:20;12.87;;;5.30;;
18592;SDS011;9426;54.118;17.948;2023-12-04T03:31:45;12.77;;;5.27;;
18592;SDS011;9426;54.118;17.948;2023-12-04T03:37:09;13.43;;;5.73;;
18592;SDS011;9426;54.118;17.948;2023-12-04T03:42:33;10.57;;;4.97;;
18592;SDS011;9426;54.118;17.948;2023-12-04T03:47:58;11.93;;;5.37;;
18592;SDS011;9426;54.118;17.948;2023-12-04T03:53:22;10.97;;;5.70;;
18592;SDS011;9426;54.118;17.948;2023-12-04T03:58:46;12.03;;;5.67;;
18592;SDS011;9426;54.118;17.948;2023-12-04T04:04:11;10.00;;;5.73;;
18592;SDS011;9426;54.118;17.948;2023-12-04T04:09:34;10.23;;;5.60;;
18592;SDS011;9426;54.118;17.948;2023-12-04T04:14:58;9.73;;;5.97;;
18592;SDS011;9426;54.118;17.948;2023-12-04T04:20:23;14.33;;;6.10;;
18592;SDS011;9426;54.118;17.948;2023-12-04T04:25:47;15.07;;;6.27;;
18592;SDS011;9426;54.118;17.948;2023-12-04T04:31:11;14.70;;;6.80;;
18592;SDS011;9426;54.118;17.948;2023-12-04T04:36:35;14.37;;;6.67;;
18592;SDS011;9426;54.118;17.948;2023-12-04T04:41:59;13.73;;;6.00;;
18592;SDS011;9426;54.118;17.948;2023-12-04T04:47:23;12.50;;;6.60;;
18592;SDS011;9426;54.118;17.948;2023-12-04T04:52:48;14.67;;;7.80;;
18592;SDS011;9426;54.118;17.948;2023-12-04T04:58:11;17.30;;;7.97;;
18592;SDS011;9426;54.118;17.948;2023-12-04T05:03:35;16.63;;;8.10;;
18592;SDS011;9426;54.118;17.948;2023-12-04T05:09:00;14.03;;;7.57;;
18592;SDS011;9426;54.118;17.948;2023-12-04T05:14:23;21.90;;;9.07;;
18592;SDS011;9426;54.118;17.948;2023-12-04T05:19:48;18.50;;;8.50;;
18592;SDS011;9426;54.118;17.948;2023-12-04T05:25:14;20.53;;;9.57;;
18592;SDS011;9426;54.118;17.948;2023-12-04T05:30:38;15.93;;;9.00;;
18592;SDS011;9426;54.118;17.948;2023-12-04T05:36:01;18.77;;;8.70;;
18592;SDS011;9426;54.118;17.948;2023-12-04T05:41:26;19.20;;;9.47;;
18592;SDS011;9426;54.118;17.948;2023-12-04T05:46:50;19.47;;;9.37;;
18592;SDS011;9426;54.118;17.948;2023-12-04T05:52:14;16.33;;;8.90;;
18592;SDS011;9426;54.118;17.948;2023-12-04T05:57:39;22.57;;;9.93;;
18592;SDS011;9426;54.118;17.948;2023-12-04T06:03:04;24.77;;;11.30;;
18592;SDS011;9426;54.118;17.948;2023-12-04T06:08:27;20.50;;;10.33;;
18592;SDS011;9426;54.118;17.948;2023-12-04T06:13:53;26.23;;;12.07;;
18592;SDS011;9426;54.118;17.948;2023-12-04T06:19:17;20.87;;;10.63;;
18592;SDS011;9426;54.118;17.948;2023-12-04T06:24:41;24.33;;;10.97;;
18592;SDS011;9426;54.118;17.948;2023-12-04T06:30:07;22.90;;;10.33;;
18592;SDS011;9426;54.118;17.948;2023-12-04T06:35:31;30.20;;;11.97;;
18592;SDS011;9426;54.118;17.948;2023-12-04T06:40:55;26.47;;;12.70;;
18592;SDS011;9426;54.118;17.948;2023-12-04T06:46:21;29.33;;;12.53;;
18592;SDS011;9426;54.118;17.948;2023-12-04T06:51:50;26.57;;;11.27;;
18592;SDS011;9426;54.118;17.948;2023-12-04T06:57:14;24.93;;;12.00;;
18592;SDS011;9426;54.118;17.948;2023-12-04T07:02:40;27.90;;;12.13;;
18592;SDS011;9426;54.118;17.948;2023-12-04T07:08:04;30.60;;;12.97;;
18592;SDS011;9426;54.118;17.948;2023-12-04T07:13:28;27.70;;;12.83;;
18592;SDS011;9426;54.118;17.948;2023-12-04T07:18:53;31.50;;;12.37;;
18592;SDS011;9426;54.118;17.948;2023-12-04T07:24:17;27.17;;;12.97;;
18592;SDS011;9426;54.118;17.948;2023-12-04T07:29:41;42.63;;;21.03;;
18592;SDS011;9426;54.118;17.948;2023-12-04T07:35:06;52.23;;;24.37;;
18592;SDS011;9426;54.118;17.948;2023-12-04T07:40:30;48.50;;;22.17;;
18592;SDS011;9426;54.118;17.948;2023-12-04T07:45:54;40.80;;;16.37;;
18592;SDS011;9426;54.118;17.948;2023-12-04T07:51:22;44.43;;;17.17;;
18592;SDS011;9426;54.118;17.948;2023-12-04T07:56:45;51.13;;;23.47;;
18592;SDS011;9426;54.118;17.948;2023-12-04T08:02:09;44.47;;;19.07;;
18592;SDS011;9426;54.118;17.948;2023-12-04T08:07:34;51.37;;;23.73;;
18592;SDS011;9426;54.118;17.948;2023-12-04T08:12:58;49.93;;;19.87;;
18592;SDS011;9426;54.118;17.948;2023-12-04T08:18:23;55.70;;;24.13;;
18592;SDS011;9426;54.118;17.948;2023-12-04T08:23:48;49.23;;;21.07;;
18592;SDS011;9426;54.118;17.948;2023-12-04T08:29:11;55.93;;;20.60;;
18592;SDS011;9426;54.118;17.948;2023-12-04T08:34:35;53.23;;;22.10;;
18592;SDS011;9426;54.118;17.948;2023-12-04T08:40:01;52.77;;;24.13;;
18592;SDS011;9426;54.118;17.948;2023-12-04T08:45:25;52.17;;;20.37;;
18592;SDS011;9426;54.118;17.948;2023-12-04T08:50:48;50.77;;;21.13;;
18592;SDS011;9426;54.118;17.948;2023-12-04T08:56:13;55.33;;;23.10;;
18592;SDS011;9426;54.118;17.948;2023-12-04T09:01:39;47.47;;;21.90;;
18592;SDS011;9426;54.118;17.948;2023-12-04T09:07:03;51.53;;;22.70;;
18592;SDS011;9426;54.118;17.948;2023-12-04T09:12:31;52.57;;;21.50;;
18592;SDS011;9426;54.118;17.948;2023-12-04T09:17:56;49.77;;;21.67;;
18592;SDS011;9426;54.118;17.948;2023-12-04T09:23:21;48.30;;;20.17;;
18592;SDS011;9426;54.118;17.948;2023-12-04T09:28:47;49.70;;;20.60;;
18592;SDS011;9426;54.118;17.948;2023-12-04T09:34:11;59.33;;;23.93;;
18592;SDS011;9426;54.118;17.948;2023-12-04T09:39:34;48.47;;;20.53;;
18592;SDS011;9426;54.118;17.948;2023-12-04T09:44:59;45.60;;;20.40;;
18592;SDS011;9426;54.118;17.948;2023-12-04T09:50:24;42.13;;;18.83;;
18592;SDS011;9426;54.118;17.948;2023-12-04T09:55:48;43.63;;;18.00;;
18592;SDS011;9426;54.118;17.948;2023-12-04T10:01:14;39.43;;;17.20;;
18592;SDS011;9426;54.118;17.948;2023-12-04T10:06:38;38.67;;;17.37;;
18592;SDS011;9426;54.118;17.948;2023-12-04T10:12:01;40.27;;;18.43;;
18592;SDS011;9426;54.118;17.948;2023-12-04T10:17:27;33.77;;;16.03;;
18592;SDS011;9426;54.118;17.948;2023-12-04T10:22:57;39.03;;;18.13;;
18592;SDS011;9426;54.118;17.948;2023-12-04T10:28:22;30.63;;;14.97;;
18592;SDS011;9426;54.118;17.948;2023-12-04T10:33:47;31.23;;;15.77;;
18592;SDS011;9426;54.118;17.948;2023-12-04T10:39:11;34.57;;;16.20;;
18592;SDS011;9426;54.118;17.948;2023-12-04T10:44:35;29.70;;;14.80;;
18592;SDS011;9426;54.118;17.948;2023-12-04T10:50:00;30.53;;;14.60;;
18592;SDS011;9426;54.118;17.948;2023-12-04T10:55:25;32.90;;;15.80;;
18592;SDS011;9426;54.118;17.948;2023-12-04T11:00:49;32.30;;;15.40;;
18592;SDS011;9426;54.118;17.948;2023-12-04T11:06:16;31.50;;;14.10;;
18592;SDS011;9426;54.118;17.948;2023-12-04T11:11:43;27.70;;;13.63;;
18592;SDS011;9426;54.118;17.948;2023-12-04T11:17:12;28.10;;;13.57;;
18592;SDS011;9426;54.118;17.948;2023-12-04T11:22:39;24.77;;;12.50;;
18592;SDS011;9426;54.118;17.948;2023-12-04T11:28:03;26.60;;;13.57;;
18592;SDS011;9426;54.118;17.948;2023-12-04T11:33:27;27.23;;;14.13;;
18592;SDS011;9426;54.118;17.948;2023-12-04T11:38:52;29.23;;;14.37;;
18592;SDS011;9426;54.118;17.948;2023-12-04T11:44:18;28.43;;;14.63;;
18592;SDS011;9426;54.118;17.948;2023-12-04T11:49:42;23.87;;;13.07;;
18592;SDS011;9426;54.118;17.948;2023-12-04T11:55:08;28.03;;;14.07;;
18592;SDS011;9426;54.118;17.948;2023-12-04T12:00:34;24.40;;;12.57;;
18592;SDS011;9426;54.118;17.948;2023-12-04T12:05:59;29.30;;;13.93;;
18592;SDS011;9426;54.118;17.948;2023-12-04T12:11:24;32.23;;;15.50;;
18592;SDS011;9426;54.118;17.948;2023-12-04T12:16:48;28.40;;;14.17;;
18592;SDS011;9426;54.118;17.948;2023-12-04T12:22:12;27.10;;;13.40;;
18592;SDS011;9426;54.118;17.948;2023-12-04T12:27:37;27.87;;;12.90;;
18592;SDS011;9426;54.118;17.948;2023-12-04T12:33:01;26.27;;;12.73;;
18592;SDS011;9426;54.118;17.948;2023-12-04T12:38:25;24.27;;;12.80;;
18592;SDS011;9426;54.118;17.948;2023-12-04T12:43:52;28.13;;;13.90;;
18592;SDS011;9426;54.118;17.948;2023-12-04T12:49:17;28.27;;;14.60;;
18592;SDS011;9426;54.118;17.948;2023-12-04T12:54:45;34.53;;;16.27;;
18592;SDS011;9426;54.118;17.948;2023-12-04T13:00:11;27.33;;;13.17;;
18592;SDS011;9426;54.118;17.948;2023-12-04T13:05:36;34.83;;;14.50;;
18592;SDS011;9426;54.118;17.948;2023-12-04T13:11:00;29.37;;;13.97;;
18592;SDS011;9426;54.118;17.948;2023-12-04T13:16:25;29.23;;;13.50;;
18592;SDS011;9426;54.118;17.948;2023-12-04T13:21:49;30.47;;;14.57;;
18592;SDS011;9426;54.118;17.948;2023-12-04T13:27:12;27.37;;;13.30;;
18592;SDS011;9426;54.118;17.948;2023-12-04T13:32:38;30.37;;;14.10;;
18592;SDS011;9426;54.118;17.948;2023-12-04T13:38:02;25.17;;;13.80;;
18592;SDS011;9426;54.118;17.948;2023-12-04T13:43:28;26.70;;;13.13;;
18592;SDS011;9426;54.118;17.948;2023-12-04T13:49:10;29.73;;;14.23;;
18592;SDS011;9426;54.118;17.948;2023-12-04T13:54:34;31.27;;;15.20;;
18592;SDS011;9426;54.118;17.948;2023-12-04T14:00:06;28.23;;;13.83;;
18592;SDS011;9426;54.118;17.948;2023-12-04T14:05:32;31.03;;;15.23;;
18592;SDS011;9426;54.118;17.948;2023-12-04T14:10:56;30.30;;;14.47;;
18592;SDS011;9426;54.118;17.948;2023-12-04T14:16:20;32.17;;;15.87;;
18592;SDS011;9426;54.118;17.948;2023-12-04T14:21:45;35.37;;;15.77;;
18592;SDS011;9426;54.118;17.948;2023-12-04T14:27:09;33.20;;;15.00;;
18592;SDS011;9426;54.118;17.948;2023-12-04T14:32:34;37.13;;;16.47;;
18592;SDS011;9426;54.118;17.948;2023-12-04T14:38:03;32.90;;;15.30;;
18592;SDS011;9426;54.118;17.948;2023-12-04T14:43:27;36.17;;;15.80;;
18592;SDS011;9426;54.118;17.948;2023-12-04T14:48:50;58.30;;;22.97;;
18592;SDS011;9426;54.118;17.948;2023-12-04T14:54:16;31.67;;;15.37;;
18592;SDS011;9426;54.118;17.948;2023-12-04T14:59:43;37.30;;;15.67;;
18592;SDS011;9426;54.118;17.948;2023-12-04T15:05:32;34.00;;;15.70;;
18592;SDS011;9426;54.118;17.948;2023-12-04T15:11:11;30.30;;;14.47;;
18592;SDS011;9426;54.118;17.948;2023-12-04T15:16:58;33.07;;;15.67;;
18592;SDS011;9426;54.118;17.948;2023-12-04T15:22:38;28.10;;;14.63;;
18592;SDS011;9426;54.118;17.948;2023-12-04T15:28:04;34.33;;;15.83;;
18592;SDS011;9426;54.118;17.948;2023-12-04T15:33:29;34.07;;;15.73;;
18592;SDS011;9426;54.118;17.948;2023-12-04T15:38:53;34.00;;;16.00;;
18592;SDS011;9426;54.118;17.948;2023-12-04T15:44:18;52.00;;;20.13;;
18592;SDS011;9426;54.118;17.948;2023-12-04T15:49:42;57.97;;;24.53;;
18592;SDS011;9426;54.118;17.948;2023-12-04T15:55:06;42.33;;;18.83;;
18592;SDS011;9426;54.118;17.948;2023-12-04T16:00:34;41.03;;;18.73;;
18592;SDS011;9426;54.118;17.948;2023-12-04T16:06:00;34.33;;;16.50;;
18592;SDS011;9426;54.118;17.948;2023-12-04T16:11:23;41.07;;;18.10;;
18592;SDS011;9426;54.118;17.948;2023-12-04T16:16:48;38.27;;;16.83;;
18592;SDS011;9426;54.118;17.948;2023-12-04T16:22:12;40.77;;;18.13;;
18592;SDS011;9426;54.118;17.948;2023-12-04T16:27:36;43.27;;;19.27;;
18592;SDS011;9426;54.118;17.948;2023-12-04T16:33:02;45.90;;;19.87;;
18592;SDS011;9426;54.118;17.948;2023-12-04T16:38:26;44.00;;;19.83;;
18592;SDS011;9426;54.118;17.948;2023-12-04T16:43:50;51.20;;;22.03;;
18592;SDS011;9426;54.118;17.948;2023-12-04T16:49:15;50.33;;;22.63;;
18592;SDS011;9426;54.118;17.948;2023-12-04T16:54:39;57.90;;;24.73;;
18592;SDS011;9426;54.118;17.948;2023-12-04T17:00:03;57.03;;;23.77;;
18592;SDS011;9426;54.118;17.948;2023-12-04T17:05:29;56.80;;;25.17;;
18592;SDS011;9426;54.118;17.948;2023-12-04T17:10:53;60.43;;;25.40;;
18592;SDS011;9426;54.118;17.948;2023-12-04T17:16:17;58.37;;;23.67;;
18592;SDS011;9426;54.118;17.948;2023-12-04T17:21:42;63.90;;;24.23;;
18592;SDS011;9426;54.118;17.948;2023-12-04T17:27:06;73.87;;;28.37;;
18592;SDS011;9426;54.118;17.948;2023-12-04T17:32:30;68.70;;;27.40;;
18592;SDS011;9426;54.118;17.948;2023-12-04T17:37:55;74.57;;;28.30;;
18592;SDS011;9426;54.118;17.948;2023-12-04T17:43:18;67.83;;;26.93;;
18592;SDS011;9426;54.118;17.948;2023-12-04T17:48:42;60.07;;;25.23;;
18592;SDS011;9426;54.118;17.948;2023-12-04T17:54:10;63.13;;;25.83;;
18592;SDS011;9426;54.118;17.948;2023-12-04T17:59:34;57.73;;;24.10;;
18592;SDS011;9426;54.118;17.948;2023-12-04T18:04:57;74.10;;;27.10;;
18592;SDS011;9426;54.118;17.948;2023-12-04T18:10:22;77.67;;;27.90;;
18592;SDS011;9426;54.118;17.948;2023-12-04T18:15:45;84.47;;;32.70;;
18592;SDS011;9426;54.118;17.948;2023-12-04T18:21:09;67.80;;;27.17;;
18592;SDS011;9426;54.118;17.948;2023-12-04T18:26:35;92.13;;;32.47;;
18592;SDS011;9426;54.118;17.948;2023-12-04T18:32:00;73.63;;;28.73;;
18592;SDS011;9426;54.118;17.948;2023-12-04T18:37:27;64.60;;;22.43;;
18592;SDS011;9426;54.118;17.948;2023-12-04T18:42:57;60.73;;;24.57;;
18592;SDS011;9426;54.118;17.948;2023-12-04T18:48:21;61.13;;;24.53;;
18592;SDS011;9426;54.118;17.948;2023-12-04T18:53:50;64.57;;;23.70;;
18592;SDS011;9426;54.118;17.948;2023-12-04T18:59:16;66.53;;;25.90;;
18592;SDS011;9426;54.118;17.948;2023-12-04T19:04:40;66.80;;;26.13;;
18592;SDS011;9426;54.118;17.948;2023-12-04T19:10:04;65.83;;;23.57;;
18592;SDS011;9426;54.118;17.948;2023-12-04T19:15:29;70.70;;;27.17;;
18592;SDS011;9426;54.118;17.948;2023-12-04T19:20:54;72.70;;;28.47;;
18592;SDS011;9426;54.118;17.948;2023-12-04T19:26:18;61.30;;;25.13;;
18592;SDS011;9426;54.118;17.948;2023-12-04T19:31:43;59.87;;;24.17;;
18592;SDS011;9426;54.118;17.948;2023-12-04T19:37:07;76.70;;;26.63;;
18592;SDS011;9426;54.118;17.948;2023-12-04T19:42:31;69.37;;;26.27;;
18592;SDS011;9426;54.118;17.948;2023-12-04T19:47:56;66.60;;;25.03;;
18592;SDS011;9426;54.118;17.948;2023-12-04T19:53:20;65.90;;;25.17;;
18592;SDS011;9426;54.118;17.948;2023-12-04T19:58:43;51.77;;;22.67;;
18592;SDS011;9426;54.118;17.948;2023-12-04T20:04:09;66.50;;;25.80;;
18592;SDS011;9426;54.118;17.948;2023-12-04T20:09:32;58.07;;;22.90;;
18592;SDS011;9426;54.118;17.948;2023-12-04T20:14:56;59.90;;;22.60;;
18592;SDS011;9426;54.118;17.948;2023-12-04T20:20:21;67.50;;;26.50;;
18592;SDS011;9426;54.118;17.948;2023-12-04T20:25:45;63.07;;;25.23;;
18592;SDS011;9426;54.118;17.948;2023-12-04T20:31:09;81.63;;;28.77;;
18592;SDS011;9426;54.118;17.948;2023-12-04T20:36:34;73.00;;;29.90;;
18592;SDS011;9426;54.118;17.948;2023-12-04T20:41:58;101.40;;;33.67;;
18592;SDS011;9426;54.118;17.948;2023-12-04T20:47:22;85.10;;;31.50;;
18592;SDS011;9426;54.118;17.948;2023-12-04T20:52:47;92.43;;;31.53;;
18592;SDS011;9426;54.118;17.948;2023-12-04T20:58:10;106.77;;;34.60;;
18592;SDS011;9426;54.118;17.948;2023-12-04T21:03:34;87.60;;;32.67;;
18592;SDS011;9426;54.118;17.948;2023-12-04T21:08:59;62.50;;;24.90;;
18592;SDS011;9426;54.118;17.948;2023-12-04T21:14:25;67.03;;;25.13;;
18592;SDS011;9426;54.118;17.948;2023-12-04T21:19:49;68.77;;;23.97;;
18592;SDS011;9426;54.118;17.948;2023-12-04T21:25:14;65.30;;;22.80;;
18592;SDS011;9426;54.118;17.948;2023-12-04T21:30:38;80.47;;;26.17;;
18592;SDS011;9426;54.118;17.948;2023-12-04T21:36:02;84.80;;;29.70;;
18592;SDS011;9426;54.118;17.948;2023-12-04T21:41:27;82.33;;;28.90;;
18592;SDS011;9426;54.118;17.948;2023-12-04T21:46:51;87.37;;;28.53;;
18592;SDS011;9426;54.118;17.948;2023-12-04T21:52:15;88.40;;;30.50;;
18592;SDS011;9426;54.118;17.948;2023-12-04T21:57:40;76.87;;;26.83;;
18592;SDS011;9426;54.118;17.948;2023-12-04T22:03:04;65.57;;;24.63;;
18592;SDS011;9426;54.118;17.948;2023-12-04T22:08:28;68.77;;;24.17;;
18592;SDS011;9426;54.118;17.948;2023-12-04T22:13:54;83.63;;;25.47;;
18592;SDS011;9426;54.118;17.948;2023-12-04T22:19:17;71.07;;;25.20;;
18592;SDS011;9426;54.118;17.948;2023-12-04T22:24:41;76.73;;;26.57;;
18592;SDS011;9426;54.118;17.948;2023-12-04T22:30:07;67.80;;;23.37;;
18592;SDS011;9426;54.118;17.948;2023-12-04T22:35:31;76.17;;;24.87;;
18592;SDS011;9426;54.118;17.948;2023-12-04T22:40:55;63.23;;;23.90;;
18592;SDS011;9426;54.118;17.948;2023-12-04T22:46:20;66.60;;;25.03;;
18592;SDS011;9426;54.118;17.948;2023-12-04T22:51:44;61.33;;;22.23;;
18592;SDS011;9426;54.118;17.948;2023-12-04T22:57:08;79.23;;;27.10;;
18592;SDS011;9426;54.118;17.948;2023-12-04T23:02:33;91.43;;;29.53;;
18592;SDS011;9426;54.118;17.948;2023-12-04T23:07:56;102.57;;;33.27;;
18592;SDS011;9426;54.118;17.948;2023-12-04T23:13:20;92.47;;;31.77;;
18592;SDS011;9426;54.118;17.948;2023-12-04T23:18:46;100.67;;;30.70;;
18592;SDS011;9426;54.118;17.948;2023-12-04T23:24:09;112.77;;;33.63;;
18592;SDS011;9426;54.118;17.948;2023-12-04T23:29:32;99.20;;;30.47;;
18592;SDS011;9426;54.118;17.948;2023-12-04T23:34:58;86.13;;;28.00;;
18592;SDS011;9426;54.118;17.948;2023-12-04T23:40:21;86.70;;;27.17;;
18592;SDS011;9426;54.118;17.948;2023-12-04T23:45:45;83.77;;;27.80;;
18592;SDS011;9426;54.118;17.948;2023-12-04T23:51:10;86.50;;;27.40;;
18592;SDS011;9426;54.118;17.948;2023-12-04T23:56:34;88.73;;;27.83;;
